sensor_id;sensor_type;location;lat;lon;timestamp;P1;durP1;ratioP1;P2;durP2;ratioP2
39728;SDS011;25402;42.004;23.088;2023-04-03T00:00:17;5.53;;;3.50;;
39728;SDS011;25402;42.004;23.088;2023-04-03T00:02:44;6.80;;;3.85;;
39728;SDS011;25402;42.004;23.088;2023-04-03T00:05:11;6.97;;;3.78;;
39728;SDS011;25402;42.004;23.088;2023-04-03T00:07:37;9.38;;;4.20;;
39728;SDS011;25402;42.004;23.088;2023-04-03T00:10:06;8.27;;;3.97;;
39728;SDS011;25402;42.004;23.088;2023-04-03T00:12:33;10.70;;;3.85;;
39728;SDS011;25402;42.004;23.088;2023-04-03T00:15:00;10.05;;;3.80;;
39728;SDS011;25402;42.004;23.088;2023-04-03T00:17:26;5.78;;;3.78;;
39728;SDS011;25402;42.004;23.088;2023-04-03T00:19:53;9.00;;;3.47;;
39728;SDS011;25402;42.004;23.088;2023-04-03T00:22:19;9.18;;;3.63;;
39728;SDS011;25402;42.004;23.088;2023-04-03T00:24:46;6.18;;;3.95;;
39728;SDS011;25402;42.004;23.088;2023-04-03T00:27:14;7.32;;;3.60;;
39728;SDS011;25402;42.004;23.088;2023-04-03T00:29:41;7.72;;;4.32;;
39728;SDS011;25402;42.004;23.088;2023-04-03T00:32:07;6.68;;;3.90;;
39728;SDS011;25402;42.004;23.088;2023-04-03T00:34:34;9.18;;;4.20;;
39728;SDS011;25402;42.004;23.088;2023-04-03T00:37:00;11.60;;;4.25;;
39728;SDS011;25402;42.004;23.088;2023-04-03T00:39:27;10.27;;;5.43;;
39728;SDS011;25402;42.004;23.088;2023-04-03T00:41:54;10.50;;;4.55;;
39728;SDS011;25402;42.004;23.088;2023-04-03T00:44:23;9.65;;;4.85;;
39728;SDS011;25402;42.004;23.088;2023-04-03T00:47:09;8.23;;;4.25;;
39728;SDS011;25402;42.004;23.088;2023-04-03T00:49:37;8.57;;;3.92;;
39728;SDS011;25402;42.004;23.088;2023-04-03T00:52:04;12.15;;;4.30;;
39728;SDS011;25402;42.004;23.088;2023-04-03T00:54:32;12.75;;;3.45;;
39728;SDS011;25402;42.004;23.088;2023-04-03T00:56:59;7.07;;;4.00;;
39728;SDS011;25402;42.004;23.088;2023-04-03T00:59:27;7.57;;;4.20;;
39728;SDS011;25402;42.004;23.088;2023-04-03T01:01:57;6.53;;;4.03;;
39728;SDS011;25402;42.004;23.088;2023-04-03T01:04:26;6.63;;;3.90;;
39728;SDS011;25402;42.004;23.088;2023-04-03T01:06:53;8.07;;;3.90;;
39728;SDS011;25402;42.004;23.088;2023-04-03T01:09:20;6.20;;;4.00;;
39728;SDS011;25402;42.004;23.088;2023-04-03T01:11:47;7.25;;;4.15;;
39728;SDS011;25402;42.004;23.088;2023-04-03T01:14:14;9.27;;;3.67;;
39728;SDS011;25402;42.004;23.088;2023-04-03T01:16:42;14.13;;;3.95;;
39728;SDS011;25402;42.004;23.088;2023-04-03T01:19:12;6.80;;;3.45;;
39728;SDS011;25402;42.004;23.088;2023-04-03T01:24:31;8.30;;;3.63;;
39728;SDS011;25402;42.004;23.088;2023-04-03T01:26:58;7.57;;;4.35;;
39728;SDS011;25402;42.004;23.088;2023-04-03T01:29:25;7.70;;;4.10;;
39728;SDS011;25402;42.004;23.088;2023-04-03T01:31:53;5.95;;;3.95;;
39728;SDS011;25402;42.004;23.088;2023-04-03T01:34:20;10.70;;;4.85;;
39728;SDS011;25402;42.004;23.088;2023-04-03T01:36:47;10.95;;;4.60;;
39728;SDS011;25402;42.004;23.088;2023-04-03T01:39:14;9.68;;;4.78;;
39728;SDS011;25402;42.004;23.088;2023-04-03T01:41:41;11.13;;;4.95;;
39728;SDS011;25402;42.004;23.088;2023-04-03T01:44:07;10.98;;;5.35;;
39728;SDS011;25402;42.004;23.088;2023-04-03T01:46:34;10.52;;;5.10;;
39728;SDS011;25402;42.004;23.088;2023-04-03T01:49:04;10.68;;;4.32;;
39728;SDS011;25402;42.004;23.088;2023-04-03T01:51:30;8.70;;;4.70;;
39728;SDS011;25402;42.004;23.088;2023-04-03T01:53:58;6.13;;;3.70;;
39728;SDS011;25402;42.004;23.088;2023-04-03T01:56:24;10.38;;;4.70;;
39728;SDS011;25402;42.004;23.088;2023-04-03T01:58:51;9.48;;;4.25;;
39728;SDS011;25402;42.004;23.088;2023-04-03T02:01:18;9.93;;;4.20;;
39728;SDS011;25402;42.004;23.088;2023-04-03T02:03:45;8.85;;;4.63;;
39728;SDS011;25402;42.004;23.088;2023-04-03T02:06:13;11.60;;;4.68;;
39728;SDS011;25402;42.004;23.088;2023-04-03T02:08:39;10.38;;;5.07;;
39728;SDS011;25402;42.004;23.088;2023-04-03T02:11:06;8.77;;;4.32;;
39728;SDS011;25402;42.004;23.088;2023-04-03T02:13:33;9.90;;;4.35;;
39728;SDS011;25402;42.004;23.088;2023-04-03T02:16:05;8.07;;;3.88;;
39728;SDS011;25402;42.004;23.088;2023-04-03T02:18:32;11.07;;;3.90;;
39728;SDS011;25402;42.004;23.088;2023-04-03T02:20:58;6.95;;;3.53;;
39728;SDS011;25402;42.004;23.088;2023-04-03T02:23:26;9.65;;;3.92;;
39728;SDS011;25402;42.004;23.088;2023-04-03T02:25:53;9.02;;;3.70;;
39728;SDS011;25402;42.004;23.088;2023-04-03T02:28:20;8.32;;;4.10;;
39728;SDS011;25402;42.004;23.088;2023-04-03T02:30:46;9.77;;;3.85;;
39728;SDS011;25402;42.004;23.088;2023-04-03T02:33:13;7.32;;;3.70;;
39728;SDS011;25402;42.004;23.088;2023-04-03T02:35:39;6.68;;;3.78;;
39728;SDS011;25402;42.004;23.088;2023-04-03T02:38:06;6.18;;;3.70;;
39728;SDS011;25402;42.004;23.088;2023-04-03T02:40:34;5.47;;;3.30;;
39728;SDS011;25402;42.004;23.088;2023-04-03T02:43:01;12.18;;;3.97;;
39728;SDS011;25402;42.004;23.088;2023-04-03T02:45:27;8.75;;;3.55;;
39728;SDS011;25402;42.004;23.088;2023-04-03T02:47:54;14.07;;;4.32;;
39728;SDS011;25402;42.004;23.088;2023-04-03T02:50:20;8.30;;;4.75;;
39728;SDS011;25402;42.004;23.088;2023-04-03T02:52:47;12.27;;;5.28;;
39728;SDS011;25402;42.004;23.088;2023-04-03T02:55:14;23.90;;;10.00;;
39728;SDS011;25402;42.004;23.088;2023-04-03T02:57:43;14.00;;;6.25;;
39728;SDS011;25402;42.004;23.088;2023-04-03T03:00:12;15.40;;;5.00;;
39728;SDS011;25402;42.004;23.088;2023-04-03T03:02:39;13.98;;;4.65;;
39728;SDS011;25402;42.004;23.088;2023-04-03T03:05:06;8.90;;;4.60;;
39728;SDS011;25402;42.004;23.088;2023-04-03T03:07:33;10.82;;;4.68;;
39728;SDS011;25402;42.004;23.088;2023-04-03T03:10:00;10.52;;;4.25;;
39728;SDS011;25402;42.004;23.088;2023-04-03T03:12:26;14.60;;;3.70;;
39728;SDS011;25402;42.004;23.088;2023-04-03T03:14:54;6.80;;;3.88;;
39728;SDS011;25402;42.004;23.088;2023-04-03T03:17:21;13.00;;;4.13;;
39728;SDS011;25402;42.004;23.088;2023-04-03T03:19:47;10.00;;;3.78;;
39728;SDS011;25402;42.004;23.088;2023-04-03T03:22:14;15.00;;;4.63;;
39728;SDS011;25402;42.004;23.088;2023-04-03T03:24:40;9.52;;;4.00;;
39728;SDS011;25402;42.004;23.088;2023-04-03T03:27:07;9.98;;;4.30;;
39728;SDS011;25402;42.004;23.088;2023-04-03T03:29:33;14.50;;;4.60;;
39728;SDS011;25402;42.004;23.088;2023-04-03T03:32:01;13.43;;;5.05;;
39728;SDS011;25402;42.004;23.088;2023-04-03T03:34:28;19.58;;;4.88;;
39728;SDS011;25402;42.004;23.088;2023-04-03T03:36:55;15.40;;;5.50;;
39728;SDS011;25402;42.004;23.088;2023-04-03T03:39:21;15.15;;;5.22;;
39728;SDS011;25402;42.004;23.088;2023-04-03T03:41:48;10.38;;;5.15;;
39728;SDS011;25402;42.004;23.088;2023-04-03T03:44:15;12.13;;;4.90;;
39728;SDS011;25402;42.004;23.088;2023-04-03T03:46:42;7.53;;;3.03;;
39728;SDS011;25402;42.004;23.088;2023-04-03T03:49:10;18.67;;;3.33;;
39728;SDS011;25402;42.004;23.088;2023-04-03T03:51:37;14.70;;;3.38;;
39728;SDS011;25402;42.004;23.088;2023-04-03T03:54:03;23.90;;;3.75;;
39728;SDS011;25402;42.004;23.088;2023-04-03T03:56:30;16.70;;;3.45;;
39728;SDS011;25402;42.004;23.088;2023-04-03T03:58:57;18.27;;;3.88;;
39728;SDS011;25402;42.004;23.088;2023-04-03T04:01:23;18.70;;;4.57;;
39728;SDS011;25402;42.004;23.088;2023-04-03T04:03:50;22.00;;;3.75;;
39728;SDS011;25402;42.004;23.088;2023-04-03T04:06:20;39.78;;;3.75;;
39728;SDS011;25402;42.004;23.088;2023-04-03T04:08:47;18.80;;;3.33;;
39728;SDS011;25402;42.004;23.088;2023-04-03T04:11:13;20.45;;;4.20;;
39728;SDS011;25402;42.004;23.088;2023-04-03T04:13:40;14.02;;;4.05;;
39728;SDS011;25402;42.004;23.088;2023-04-03T04:16:06;13.27;;;5.90;;
39728;SDS011;25402;42.004;23.088;2023-04-03T04:18:34;13.55;;;4.25;;
39728;SDS011;25402;42.004;23.088;2023-04-03T04:21:01;12.50;;;4.18;;
39728;SDS011;25402;42.004;23.088;2023-04-03T04:23:29;15.90;;;4.45;;
39728;SDS011;25402;42.004;23.088;2023-04-03T04:25:56;20.50;;;5.10;;
39728;SDS011;25402;42.004;23.088;2023-04-03T04:28:23;14.48;;;4.63;;
39728;SDS011;25402;42.004;23.088;2023-04-03T04:30:49;21.10;;;4.65;;
39728;SDS011;25402;42.004;23.088;2023-04-03T04:33:16;20.25;;;5.57;;
39728;SDS011;25402;42.004;23.088;2023-04-03T04:35:42;19.17;;;4.55;;
39728;SDS011;25402;42.004;23.088;2023-04-03T04:38:09;11.80;;;4.22;;
39728;SDS011;25402;42.004;23.088;2023-04-03T04:40:40;13.32;;;4.45;;
39728;SDS011;25402;42.004;23.088;2023-04-03T04:43:07;9.20;;;3.92;;
39728;SDS011;25402;42.004;23.088;2023-04-03T04:45:35;25.63;;;4.65;;
39728;SDS011;25402;42.004;23.088;2023-04-03T04:48:03;16.48;;;7.07;;
39728;SDS011;25402;42.004;23.088;2023-04-03T04:50:31;19.58;;;6.53;;
39728;SDS011;25402;42.004;23.088;2023-04-03T04:52:58;20.40;;;7.20;;
39728;SDS011;25402;42.004;23.088;2023-04-03T04:55:26;16.52;;;5.47;;
39728;SDS011;25402;42.004;23.088;2023-04-03T04:57:54;21.85;;;8.98;;
39728;SDS011;25402;42.004;23.088;2023-04-03T05:00:21;27.33;;;7.25;;
39728;SDS011;25402;42.004;23.088;2023-04-03T05:02:49;24.85;;;6.97;;
39728;SDS011;25402;42.004;23.088;2023-04-03T05:05:17;23.13;;;6.90;;
39728;SDS011;25402;42.004;23.088;2023-04-03T05:07:44;18.58;;;7.15;;
39728;SDS011;25402;42.004;23.088;2023-04-03T05:10:10;21.67;;;7.07;;
39728;SDS011;25402;42.004;23.088;2023-04-03T05:12:37;16.77;;;7.00;;
39728;SDS011;25402;42.004;23.088;2023-04-03T05:15:06;23.27;;;7.32;;
39728;SDS011;25402;42.004;23.088;2023-04-03T05:17:33;18.33;;;5.35;;
39728;SDS011;25402;42.004;23.088;2023-04-03T05:20:00;10.38;;;4.32;;
39728;SDS011;25402;42.004;23.088;2023-04-03T05:22:34;15.75;;;4.47;;
39728;SDS011;25402;42.004;23.088;2023-04-03T05:25:01;12.60;;;5.10;;
39728;SDS011;25402;42.004;23.088;2023-04-03T05:27:27;11.90;;;4.55;;
39728;SDS011;25402;42.004;23.088;2023-04-03T05:29:54;13.73;;;4.70;;
39728;SDS011;25402;42.004;23.088;2023-04-03T05:32:23;18.75;;;4.57;;
39728;SDS011;25402;42.004;23.088;2023-04-03T05:34:50;17.25;;;4.85;;
39728;SDS011;25402;42.004;23.088;2023-04-03T05:37:16;18.73;;;4.38;;
39728;SDS011;25402;42.004;23.088;2023-04-03T05:39:44;14.80;;;4.93;;
39728;SDS011;25402;42.004;23.088;2023-04-03T05:42:12;20.10;;;6.15;;
39728;SDS011;25402;42.004;23.088;2023-04-03T05:44:41;14.80;;;5.70;;
39728;SDS011;25402;42.004;23.088;2023-04-03T05:47:09;12.15;;;5.22;;
39728;SDS011;25402;42.004;23.088;2023-04-03T05:49:37;21.23;;;4.72;;
39728;SDS011;25402;42.004;23.088;2023-04-03T05:52:10;9.80;;;4.18;;
39728;SDS011;25402;42.004;23.088;2023-04-03T05:54:39;10.05;;;4.78;;
39728;SDS011;25402;42.004;23.088;2023-04-03T05:57:05;9.90;;;5.13;;
39728;SDS011;25402;42.004;23.088;2023-04-03T05:59:32;11.30;;;5.07;;
39728;SDS011;25402;42.004;23.088;2023-04-03T06:01:59;17.02;;;6.30;;
39728;SDS011;25402;42.004;23.088;2023-04-03T06:04:27;17.88;;;4.97;;
39728;SDS011;25402;42.004;23.088;2023-04-03T06:06:56;16.63;;;5.28;;
39728;SDS011;25402;42.004;23.088;2023-04-03T06:09:24;10.02;;;4.30;;
39728;SDS011;25402;42.004;23.088;2023-04-03T06:11:51;6.10;;;3.92;;
39728;SDS011;25402;42.004;23.088;2023-04-03T06:14:19;7.78;;;3.38;;
39728;SDS011;25402;42.004;23.088;2023-04-03T06:16:45;33.20;;;4.82;;
39728;SDS011;25402;42.004;23.088;2023-04-03T06:19:12;14.32;;;4.03;;
39728;SDS011;25402;42.004;23.088;2023-04-03T06:21:39;14.13;;;4.28;;
39728;SDS011;25402;42.004;23.088;2023-04-03T06:24:07;14.85;;;5.05;;
39728;SDS011;25402;42.004;23.088;2023-04-03T06:26:34;19.40;;;5.68;;
39728;SDS011;25402;42.004;23.088;2023-04-03T06:29:01;21.80;;;7.03;;
39728;SDS011;25402;42.004;23.088;2023-04-03T06:31:28;21.45;;;7.43;;
39728;SDS011;25402;42.004;23.088;2023-04-03T06:33:55;24.23;;;8.80;;
39728;SDS011;25402;42.004;23.088;2023-04-03T06:36:24;21.83;;;8.45;;
39728;SDS011;25402;42.004;23.088;2023-04-03T06:38:50;17.90;;;5.97;;
39728;SDS011;25402;42.004;23.088;2023-04-03T06:41:19;14.80;;;6.75;;
39728;SDS011;25402;42.004;23.088;2023-04-03T06:43:49;23.58;;;5.95;;
39728;SDS011;25402;42.004;23.088;2023-04-03T06:46:20;19.65;;;6.22;;
39728;SDS011;25402;42.004;23.088;2023-04-03T06:48:47;23.23;;;6.68;;
39728;SDS011;25402;42.004;23.088;2023-04-03T06:51:21;16.88;;;6.28;;
39728;SDS011;25402;42.004;23.088;2023-04-03T06:53:48;18.53;;;6.50;;
39728;SDS011;25402;42.004;23.088;2023-04-03T06:56:15;11.23;;;5.88;;
39728;SDS011;25402;42.004;23.088;2023-04-03T06:58:45;16.50;;;6.50;;
39728;SDS011;25402;42.004;23.088;2023-04-03T07:01:19;18.35;;;7.75;;
39728;SDS011;25402;42.004;23.088;2023-04-03T07:03:58;30.50;;;10.63;;
39728;SDS011;25402;42.004;23.088;2023-04-03T07:06:25;30.25;;;13.00;;
39728;SDS011;25402;42.004;23.088;2023-04-03T07:08:52;33.05;;;13.35;;
39728;SDS011;25402;42.004;23.088;2023-04-03T07:11:20;37.05;;;16.75;;
39728;SDS011;25402;42.004;23.088;2023-04-03T07:13:52;26.13;;;10.60;;
39728;SDS011;25402;42.004;23.088;2023-04-03T07:16:19;48.17;;;21.88;;
39728;SDS011;25402;42.004;23.088;2023-04-03T07:18:47;22.08;;;9.45;;
39728;SDS011;25402;42.004;23.088;2023-04-03T07:21:14;19.15;;;8.15;;
39728;SDS011;25402;42.004;23.088;2023-04-03T07:23:41;18.15;;;6.07;;
39728;SDS011;25402;42.004;23.088;2023-04-03T07:26:08;9.45;;;4.32;;
39728;SDS011;25402;42.004;23.088;2023-04-03T07:28:35;13.32;;;5.20;;
39728;SDS011;25402;42.004;23.088;2023-04-03T07:31:04;33.47;;;5.38;;
39728;SDS011;25402;42.004;23.088;2023-04-03T07:33:31;19.20;;;6.18;;
39728;SDS011;25402;42.004;23.088;2023-04-03T07:35:57;19.50;;;7.43;;
39728;SDS011;25402;42.004;23.088;2023-04-03T07:38:25;16.95;;;7.18;;
39728;SDS011;25402;42.004;23.088;2023-04-03T07:40:52;16.75;;;6.30;;
39728;SDS011;25402;42.004;23.088;2023-04-03T07:43:19;24.08;;;5.75;;
39728;SDS011;25402;42.004;23.088;2023-04-03T07:45:47;14.00;;;4.18;;
39728;SDS011;25402;42.004;23.088;2023-04-03T07:48:16;11.32;;;4.97;;
39728;SDS011;25402;42.004;23.088;2023-04-03T07:50:43;11.95;;;4.78;;
39728;SDS011;25402;42.004;23.088;2023-04-03T07:53:12;11.50;;;5.40;;
39728;SDS011;25402;42.004;23.088;2023-04-03T07:55:40;14.35;;;5.70;;
39728;SDS011;25402;42.004;23.088;2023-04-03T07:58:09;12.60;;;4.90;;
39728;SDS011;25402;42.004;23.088;2023-04-03T08:00:36;9.73;;;5.22;;
39728;SDS011;25402;42.004;23.088;2023-04-03T08:03:03;13.27;;;4.80;;
39728;SDS011;25402;42.004;23.088;2023-04-03T08:05:39;9.63;;;3.70;;
39728;SDS011;25402;42.004;23.088;2023-04-03T08:08:08;9.02;;;3.53;;
39728;SDS011;25402;42.004;23.088;2023-04-03T08:10:38;6.88;;;3.38;;
39728;SDS011;25402;42.004;23.088;2023-04-03T08:13:10;15.43;;;3.58;;
39728;SDS011;25402;42.004;23.088;2023-04-03T08:15:39;11.18;;;3.83;;
39728;SDS011;25402;42.004;23.088;2023-04-03T08:18:05;11.95;;;4.68;;
39728;SDS011;25402;42.004;23.088;2023-04-03T08:20:32;8.00;;;4.05;;
39728;SDS011;25402;42.004;23.088;2023-04-03T08:23:01;20.23;;;4.18;;
39728;SDS011;25402;42.004;23.088;2023-04-03T08:25:29;14.07;;;5.00;;
39728;SDS011;25402;42.004;23.088;2023-04-03T08:27:57;17.95;;;4.88;;
39728;SDS011;25402;42.004;23.088;2023-04-03T08:30:26;12.32;;;4.45;;
39728;SDS011;25402;42.004;23.088;2023-04-03T08:32:53;12.13;;;4.93;;
39728;SDS011;25402;42.004;23.088;2023-04-03T08:35:20;7.93;;;3.80;;
39728;SDS011;25402;42.004;23.088;2023-04-03T08:37:47;11.13;;;2.75;;
39728;SDS011;25402;42.004;23.088;2023-04-03T08:40:16;10.02;;;2.53;;
39728;SDS011;25402;42.004;23.088;2023-04-03T08:42:46;12.18;;;2.90;;
39728;SDS011;25402;42.004;23.088;2023-04-03T08:45:15;13.45;;;3.58;;
39728;SDS011;25402;42.004;23.088;2023-04-03T08:47:44;12.52;;;4.25;;
39728;SDS011;25402;42.004;23.088;2023-04-03T08:50:13;8.82;;;4.47;;
39728;SDS011;25402;42.004;23.088;2023-04-03T08:52:42;8.10;;;3.92;;
39728;SDS011;25402;42.004;23.088;2023-04-03T08:55:16;10.57;;;4.07;;
39728;SDS011;25402;42.004;23.088;2023-04-03T08:57:45;9.00;;;3.72;;
39728;SDS011;25402;42.004;23.088;2023-04-03T09:00:16;12.27;;;4.10;;
39728;SDS011;25402;42.004;23.088;2023-04-03T09:02:44;10.55;;;4.45;;
39728;SDS011;25402;42.004;23.088;2023-04-03T09:05:13;9.55;;;4.45;;
39728;SDS011;25402;42.004;23.088;2023-04-03T09:07:42;9.95;;;3.55;;
39728;SDS011;25402;42.004;23.088;2023-04-03T09:10:12;15.38;;;3.88;;
39728;SDS011;25402;42.004;23.088;2023-04-03T09:12:42;18.17;;;5.20;;
39728;SDS011;25402;42.004;23.088;2023-04-03T09:15:15;9.40;;;4.22;;
39728;SDS011;25402;42.004;23.088;2023-04-03T09:17:46;9.40;;;3.80;;
39728;SDS011;25402;42.004;23.088;2023-04-03T09:20:19;15.65;;;4.00;;
39728;SDS011;25402;42.004;23.088;2023-04-03T09:22:49;8.13;;;4.30;;
39728;SDS011;25402;42.004;23.088;2023-04-03T09:25:18;10.77;;;4.15;;
39728;SDS011;25402;42.004;23.088;2023-04-03T09:27:48;12.95;;;4.07;;
39728;SDS011;25402;42.004;23.088;2023-04-03T09:30:15;12.43;;;4.50;;
39728;SDS011;25402;42.004;23.088;2023-04-03T09:32:43;13.50;;;5.03;;
39728;SDS011;25402;42.004;23.088;2023-04-03T09:35:16;16.00;;;5.38;;
39728;SDS011;25402;42.004;23.088;2023-04-03T09:37:44;9.80;;;4.28;;
39728;SDS011;25402;42.004;23.088;2023-04-03T09:40:31;15.05;;;4.93;;
39728;SDS011;25402;42.004;23.088;2023-04-03T09:43:02;8.98;;;5.13;;
39728;SDS011;25402;42.004;23.088;2023-04-03T09:45:30;12.18;;;4.78;;
39728;SDS011;25402;42.004;23.088;2023-04-03T09:48:07;9.98;;;4.43;;
39728;SDS011;25402;42.004;23.088;2023-04-03T09:50:36;8.15;;;4.25;;
39728;SDS011;25402;42.004;23.088;2023-04-03T09:53:05;12.57;;;4.70;;
39728;SDS011;25402;42.004;23.088;2023-04-03T09:57:59;12.27;;;4.65;;
39728;SDS011;25402;42.004;23.088;2023-04-03T10:00:29;9.23;;;4.18;;
39728;SDS011;25402;42.004;23.088;2023-04-03T10:02:57;11.20;;;4.70;;
39728;SDS011;25402;42.004;23.088;2023-04-03T10:05:29;9.70;;;4.57;;
39728;SDS011;25402;42.004;23.088;2023-04-03T10:08:09;13.93;;;4.60;;
39728;SDS011;25402;42.004;23.088;2023-04-03T10:10:36;15.48;;;4.35;;
39728;SDS011;25402;42.004;23.088;2023-04-03T10:13:07;11.90;;;4.72;;
39728;SDS011;25402;42.004;23.088;2023-04-03T10:15:38;11.25;;;5.72;;
39728;SDS011;25402;42.004;23.088;2023-04-03T10:18:07;15.82;;;8.55;;
39728;SDS011;25402;42.004;23.088;2023-04-03T10:20:39;13.00;;;5.70;;
39728;SDS011;25402;42.004;23.088;2023-04-03T10:23:15;10.90;;;4.75;;
39728;SDS011;25402;42.004;23.088;2023-04-03T10:25:47;9.32;;;4.38;;
39728;SDS011;25402;42.004;23.088;2023-04-03T10:28:19;13.32;;;5.30;;
39728;SDS011;25402;42.004;23.088;2023-04-03T10:30:51;12.35;;;4.70;;
39728;SDS011;25402;42.004;23.088;2023-04-03T10:33:27;10.57;;;5.55;;
39728;SDS011;25402;42.004;23.088;2023-04-03T10:36:01;15.10;;;4.97;;
39728;SDS011;25402;42.004;23.088;2023-04-03T10:38:31;16.52;;;6.32;;
39728;SDS011;25402;42.004;23.088;2023-04-03T10:41:00;17.23;;;6.80;;
39728;SDS011;25402;42.004;23.088;2023-04-03T10:43:30;17.00;;;8.25;;
39728;SDS011;25402;42.004;23.088;2023-04-03T10:46:02;16.75;;;9.13;;
39728;SDS011;25402;42.004;23.088;2023-04-03T10:48:35;24.25;;;8.38;;
39728;SDS011;25402;42.004;23.088;2023-04-03T10:51:10;23.80;;;10.27;;
39728;SDS011;25402;42.004;23.088;2023-04-03T10:53:39;20.13;;;8.48;;
39728;SDS011;25402;42.004;23.088;2023-04-03T10:56:09;16.85;;;8.05;;
39728;SDS011;25402;42.004;23.088;2023-04-03T10:58:38;19.05;;;8.50;;
39728;SDS011;25402;42.004;23.088;2023-04-03T11:01:08;18.92;;;8.05;;
39728;SDS011;25402;42.004;23.088;2023-04-03T11:03:38;19.50;;;9.45;;
39728;SDS011;25402;42.004;23.088;2023-04-03T11:11:26;18.73;;;8.68;;
39728;SDS011;25402;42.004;23.088;2023-04-03T11:13:55;19.27;;;9.07;;
39728;SDS011;25402;42.004;23.088;2023-04-03T11:16:28;19.65;;;8.10;;
39728;SDS011;25402;42.004;23.088;2023-04-03T11:19:02;24.42;;;8.90;;
39728;SDS011;25402;42.004;23.088;2023-04-03T11:21:31;14.63;;;6.70;;
39728;SDS011;25402;42.004;23.088;2023-04-03T11:23:59;24.90;;;8.27;;
39728;SDS011;25402;42.004;23.088;2023-04-03T11:26:30;12.18;;;6.72;;
39728;SDS011;25402;42.004;23.088;2023-04-03T11:28:59;13.27;;;6.38;;
39728;SDS011;25402;42.004;23.088;2023-04-03T11:34:17;13.52;;;5.28;;
39728;SDS011;25402;42.004;23.088;2023-04-03T11:36:48;10.65;;;4.68;;
39728;SDS011;25402;42.004;23.088;2023-04-03T11:39:18;12.68;;;4.53;;
39728;SDS011;25402;42.004;23.088;2023-04-03T11:41:46;9.85;;;5.07;;
39728;SDS011;25402;42.004;23.088;2023-04-03T11:46:56;14.95;;;6.95;;
39728;SDS011;25402;42.004;23.088;2023-04-03T11:52:10;10.45;;;5.82;;
39728;SDS011;25402;42.004;23.088;2023-04-03T11:54:47;11.10;;;5.72;;
39728;SDS011;25402;42.004;23.088;2023-04-03T12:00:00;9.38;;;5.70;;
39728;SDS011;25402;42.004;23.088;2023-04-03T12:02:35;18.00;;;9.93;;
39728;SDS011;25402;42.004;23.088;2023-04-03T12:08:03;32.22;;;19.42;;
39728;SDS011;25402;42.004;23.088;2023-04-03T12:10:42;39.57;;;21.10;;
39728;SDS011;25402;42.004;23.088;2023-04-03T12:13:13;39.03;;;23.55;;
39728;SDS011;25402;42.004;23.088;2023-04-03T12:15:47;63.85;;;35.55;;
39728;SDS011;25402;42.004;23.088;2023-04-03T12:18:32;33.95;;;11.32;;
39728;SDS011;25402;42.004;23.088;2023-04-03T12:21:06;26.05;;;10.00;;
39728;SDS011;25402;42.004;23.088;2023-04-03T12:23:34;15.05;;;7.05;;
39728;SDS011;25402;42.004;23.088;2023-04-03T12:26:19;13.88;;;6.35;;
39728;SDS011;25402;42.004;23.088;2023-04-03T12:28:57;15.93;;;8.80;;
39728;SDS011;25402;42.004;23.088;2023-04-03T12:31:25;36.72;;;19.05;;
39728;SDS011;25402;42.004;23.088;2023-04-03T12:36:49;20.55;;;10.57;;
39728;SDS011;25402;42.004;23.088;2023-04-03T12:39:30;16.30;;;8.38;;
39728;SDS011;25402;42.004;23.088;2023-04-03T12:42:02;11.82;;;7.28;;
39728;SDS011;25402;42.004;23.088;2023-04-03T12:44:39;17.55;;;7.47;;
39728;SDS011;25402;42.004;23.088;2023-04-03T12:47:21;14.70;;;7.45;;
39728;SDS011;25402;42.004;23.088;2023-04-03T12:49:48;13.55;;;7.35;;
39728;SDS011;25402;42.004;23.088;2023-04-03T12:52:17;21.38;;;9.15;;
39728;SDS011;25402;42.004;23.088;2023-04-03T12:54:46;21.75;;;9.57;;
39728;SDS011;25402;42.004;23.088;2023-04-03T12:57:20;19.15;;;9.40;;
39728;SDS011;25402;42.004;23.088;2023-04-03T12:59:50;19.60;;;9.38;;
39728;SDS011;25402;42.004;23.088;2023-04-03T13:02:21;19.27;;;8.95;;
39728;SDS011;25402;42.004;23.088;2023-04-03T13:04:49;14.65;;;7.50;;
39728;SDS011;25402;42.004;23.088;2023-04-03T13:07:22;20.15;;;7.88;;
39728;SDS011;25402;42.004;23.088;2023-04-03T13:09:59;15.38;;;7.55;;
39728;SDS011;25402;42.004;23.088;2023-04-03T13:12:27;16.83;;;8.50;;
39728;SDS011;25402;42.004;23.088;2023-04-03T13:14:55;20.38;;;9.60;;
39728;SDS011;25402;42.004;23.088;2023-04-03T13:17:22;29.08;;;13.27;;
39728;SDS011;25402;42.004;23.088;2023-04-03T13:19:49;18.27;;;9.75;;
39728;SDS011;25402;42.004;23.088;2023-04-03T13:22:24;19.77;;;9.45;;
39728;SDS011;25402;42.004;23.088;2023-04-03T13:24:52;14.40;;;7.83;;
39728;SDS011;25402;42.004;23.088;2023-04-03T13:27:22;19.42;;;7.75;;
39728;SDS011;25402;42.004;23.088;2023-04-03T13:29:49;16.73;;;7.70;;
39728;SDS011;25402;42.004;23.088;2023-04-03T13:32:18;19.65;;;8.88;;
39728;SDS011;25402;42.004;23.088;2023-04-03T13:34:47;17.25;;;9.35;;
39728;SDS011;25402;42.004;23.088;2023-04-03T13:37:21;16.27;;;8.85;;
39728;SDS011;25402;42.004;23.088;2023-04-03T13:39:56;19.17;;;10.07;;
39728;SDS011;25402;42.004;23.088;2023-04-03T13:42:26;19.65;;;11.27;;
39728;SDS011;25402;42.004;23.088;2023-04-03T13:45:17;22.73;;;11.18;;
39728;SDS011;25402;42.004;23.088;2023-04-03T13:47:45;28.63;;;12.40;;
39728;SDS011;25402;42.004;23.088;2023-04-03T13:50:20;15.02;;;8.10;;
39728;SDS011;25402;42.004;23.088;2023-04-03T13:52:48;16.25;;;7.43;;
39728;SDS011;25402;42.004;23.088;2023-04-03T13:55:17;14.05;;;7.95;;
39728;SDS011;25402;42.004;23.088;2023-04-03T13:57:54;15.50;;;8.32;;
39728;SDS011;25402;42.004;23.088;2023-04-03T14:00:33;16.42;;;9.00;;
39728;SDS011;25402;42.004;23.088;2023-04-03T14:03:00;18.90;;;9.45;;
39728;SDS011;25402;42.004;23.088;2023-04-03T14:05:27;20.58;;;12.85;;
39728;SDS011;25402;42.004;23.088;2023-04-03T14:07:53;45.58;;;27.00;;
39728;SDS011;25402;42.004;23.088;2023-04-03T14:10:20;24.73;;;11.57;;
39728;SDS011;25402;42.004;23.088;2023-04-03T14:12:47;26.67;;;14.15;;
39728;SDS011;25402;42.004;23.088;2023-04-03T14:15:18;26.38;;;10.40;;
39728;SDS011;25402;42.004;23.088;2023-04-03T14:17:46;14.63;;;6.93;;
39728;SDS011;25402;42.004;23.088;2023-04-03T14:20:14;10.38;;;6.50;;
39728;SDS011;25402;42.004;23.088;2023-04-03T14:22:41;13.40;;;6.35;;
39728;SDS011;25402;42.004;23.088;2023-04-03T14:25:08;10.35;;;5.70;;
39728;SDS011;25402;42.004;23.088;2023-04-03T14:27:40;12.00;;;5.80;;
39728;SDS011;25402;42.004;23.088;2023-04-03T14:30:08;8.63;;;5.00;;
39728;SDS011;25402;42.004;23.088;2023-04-03T14:32:36;12.18;;;6.07;;
39728;SDS011;25402;42.004;23.088;2023-04-03T14:35:03;12.48;;;5.95;;
39728;SDS011;25402;42.004;23.088;2023-04-03T14:37:30;11.18;;;6.30;;
39728;SDS011;25402;42.004;23.088;2023-04-03T14:39:58;9.05;;;4.75;;
39728;SDS011;25402;42.004;23.088;2023-04-03T14:42:27;14.57;;;5.57;;
39728;SDS011;25402;42.004;23.088;2023-04-03T14:44:54;11.73;;;4.95;;
39728;SDS011;25402;42.004;23.088;2023-04-03T14:47:22;11.40;;;4.70;;
39728;SDS011;25402;42.004;23.088;2023-04-03T14:49:54;13.18;;;4.72;;
39728;SDS011;25402;42.004;23.088;2023-04-03T14:52:21;30.55;;;5.63;;
39728;SDS011;25402;42.004;23.088;2023-04-03T14:54:48;22.02;;;5.85;;
39728;SDS011;25402;42.004;23.088;2023-04-03T14:57:16;19.50;;;6.47;;
39728;SDS011;25402;42.004;23.088;2023-04-03T14:59:42;19.60;;;5.93;;